createdAt,value
2022-12-14T00:01:34.139Z,0.08
2022-12-14T00:04:00.941Z,0.14
2022-12-14T00:06:29.298Z,0.12
2022-12-14T00:08:57.673Z,0.07
2022-12-14T00:11:25.326Z,0.04
2022-12-14T00:13:53.666Z,0.07
2022-12-14T00:16:25.148Z,0.09
2022-12-14T00:18:54.518Z,0.16
2022-12-14T00:21:22.209Z,0.13
2022-12-14T00:23:50.525Z,0.12
2022-12-14T00:26:20.292Z,0.21
2022-12-14T00:28:48.759Z,0.16
2022-12-14T00:31:16.131Z,0.13
2022-12-14T00:33:44.919Z,0.12
2022-12-14T00:36:13.004Z,0.18
2022-12-14T00:38:40.657Z,0.14
2022-12-14T00:41:08.480Z,0.12
2022-12-14T00:43:35.673Z,0.11
2022-12-14T00:46:02.578Z,0.08
2022-12-14T00:48:32.242Z,0.20
2022-12-14T00:51:00.703Z,0.15
2022-12-14T00:53:27.588Z,0.13
2022-12-14T00:55:54.468Z,0.11
2022-12-14T00:58:23.964Z,0.11
2022-12-14T01:00:59.242Z,0.10
2022-12-14T01:03:26.794Z,0.24
2022-12-14T01:05:54.054Z,0.44
2022-12-14T01:08:22.722Z,0.38
2022-12-14T01:10:50.123Z,0.29
2022-12-14T01:13:17.078Z,0.25
2022-12-14T01:15:44.158Z,0.18
2022-12-14T01:18:10.905Z,0.14
2022-12-14T01:20:37.744Z,0.12
2022-12-14T01:23:04.627Z,0.11
2022-12-14T01:25:32.955Z,0.11
2022-12-14T01:27:59.898Z,0.14
2022-12-14T01:30:26.834Z,0.12
2022-12-14T01:32:53.781Z,0.11
2022-12-14T01:35:20.794Z,0.13
2022-12-14T01:37:48.855Z,0.15
2022-12-14T01:40:16.460Z,0.14
2022-12-14T01:42:44.612Z,0.15
2022-12-14T01:45:23.611Z,0.18
2022-12-14T01:47:54.670Z,0.38
2022-12-14T01:50:28.249Z,0.30
2022-12-14T01:52:58.761Z,0.29
2022-12-14T01:55:29.242Z,0.25
2022-12-14T01:58:03.289Z,0.30
2022-12-14T02:00:31.272Z,0.25
2022-12-14T02:03:02.385Z,0.23
2022-12-14T02:05:33.930Z,0.61
2022-12-14T02:08:01.205Z,0.64
2022-12-14T02:10:31.164Z,0.54
2022-12-14T02:13:05.601Z,0.43
2022-12-14T02:15:33.722Z,0.32
2022-12-14T02:18:03.399Z,0.39
2022-12-14T02:20:39.187Z,0.34
2022-12-14T02:23:56.873Z,0.32
2022-12-14T02:27:06.611Z,0.33
2022-12-14T02:29:48.543Z,0.28
2022-12-14T02:32:29.946Z,0.24
2022-12-14T02:35:03.343Z,0.22
2022-12-14T02:37:37.181Z,0.21
2022-12-14T02:40:20.797Z,0.21
2022-12-14T02:42:58.562Z,0.28
2022-12-14T02:45:35.182Z,0.28
2022-12-14T02:48:07.473Z,0.29
2022-12-14T02:50:41.743Z,0.41
2022-12-14T02:53:17.368Z,0.45
2022-12-14T02:55:48.857Z,0.33
2022-12-14T02:58:22.758Z,0.32
2022-12-14T03:03:18.514Z,0.27
2022-12-14T03:05:58.238Z,0.24
2022-12-14T03:08:27.442Z,0.31
2022-12-14T03:10:58.453Z,0.31
2022-12-14T03:13:30.965Z,0.35
2022-12-14T03:16:04.723Z,0.33
2022-12-14T03:18:37.064Z,0.27
2022-12-14T03:21:07.306Z,0.28
2022-12-14T03:23:38.182Z,0.37
2022-12-14T03:26:13.790Z,0.46
2022-12-14T03:28:46.209Z,0.43
2022-12-14T03:31:19.429Z,0.53
2022-12-14T03:33:50.841Z,0.52
2022-12-14T03:36:25.661Z,0.59
2022-12-14T03:38:57.517Z,0.66
2022-12-14T03:41:33.711Z,0.67
2022-12-14T03:44:11.398Z,0.71
2022-12-14T03:46:49.907Z,0.89
2022-12-14T03:49:21.646Z,0.70
2022-12-14T03:52:00.226Z,0.74
2022-12-14T03:54:41.253Z,0.64
2022-12-14T03:57:15.168Z,0.61
2022-12-14T04:02:22.187Z,0.72
2022-12-14T04:04:56.364Z,0.62
2022-12-14T04:07:29.466Z,0.47
2022-12-14T04:10:02.114Z,0.35
2022-12-14T04:12:33.231Z,0.28
2022-12-14T04:15:06.142Z,0.24
2022-12-14T04:17:37.304Z,0.22
2022-12-14T04:20:09.732Z,0.28
2022-12-14T04:22:40.801Z,0.30
2022-12-14T04:25:12.859Z,0.26
2022-12-14T04:27:44.425Z,0.24
2022-12-14T04:30:13.262Z,0.26
2022-12-14T04:32:45.717Z,0.34
2022-12-14T04:35:20.264Z,0.32
2022-12-14T04:37:51.262Z,0.42
2022-12-14T04:40:22.256Z,0.41
2022-12-14T04:42:54.196Z,0.33
2022-12-14T04:45:25.839Z,0.49
2022-12-14T04:48:00.241Z,0.45
2022-12-14T04:50:32.487Z,0.34
2022-12-14T04:53:02.918Z,0.27
2022-12-14T04:55:35.653Z,0.36
2022-12-14T04:58:09.308Z,0.39
2022-12-14T05:00:40.274Z,0.35
2022-12-14T05:03:20.418Z,0.38
2022-12-14T05:05:58.747Z,0.43
2022-12-14T05:08:53.750Z,0.51
2022-12-14T05:11:52.456Z,0.41
2022-12-14T05:14:19.412Z,0.41
2022-12-14T05:16:49.108Z,0.36
2022-12-14T05:19:17.493Z,0.63
2022-12-14T05:21:44.734Z,0.48
2022-12-14T05:24:11.489Z,0.47
2022-12-14T05:26:38.579Z,0.65
2022-12-14T05:29:05.550Z,0.62
2022-12-14T05:31:32.440Z,0.64
2022-12-14T05:33:59.234Z,0.60
2022-12-14T05:36:27.727Z,0.54
2022-12-14T05:38:54.739Z,0.43
2022-12-14T05:41:21.439Z,0.32
2022-12-14T05:43:49.206Z,0.26
2022-12-14T05:46:16.209Z,0.23
2022-12-14T05:48:48.798Z,0.30
2022-12-14T05:51:16.602Z,0.22
2022-12-14T05:53:45.256Z,0.16
2022-12-14T05:56:12.483Z,0.13
2022-12-14T05:58:39.756Z,0.26
2022-12-14T06:01:11.647Z,0.66
2022-12-14T06:03:42.452Z,0.74
2022-12-14T06:06:11.926Z,0.65
2022-12-14T06:08:42.470Z,0.63
2022-12-14T06:11:13.044Z,0.64
2022-12-14T06:13:41.910Z,0.57
2022-12-14T06:16:10.724Z,0.57
2022-12-14T06:18:41.485Z,0.55
2022-12-14T06:21:08.471Z,0.65
2022-12-14T06:23:35.275Z,0.65
2022-12-14T06:26:02.337Z,0.59
2022-12-14T06:28:30.683Z,0.51
2022-12-14T06:30:57.791Z,0.50
2022-12-14T06:33:24.749Z,0.41
2022-12-14T06:35:54.169Z,0.51
2022-12-14T06:38:21.581Z,0.45
2022-12-14T06:40:48.707Z,0.43
2022-12-14T06:43:15.457Z,0.37
2022-12-14T06:45:47.067Z,0.50
2022-12-14T06:48:13.865Z,0.71
2022-12-14T06:50:40.721Z,0.61
2022-12-14T06:53:07.501Z,0.65
2022-12-14T06:55:34.589Z,0.57
2022-12-14T06:58:01.327Z,0.53
2022-12-14T07:00:28.064Z,0.55
2022-12-14T07:02:56.404Z,0.51
2022-12-14T07:05:23.350Z,0.46
2022-12-14T07:07:51.265Z,0.43
2022-12-14T07:10:18.331Z,0.41
2022-12-14T07:12:45.352Z,0.36
2022-12-14T07:15:12.124Z,0.49
2022-12-14T07:17:39.022Z,0.60
2022-12-14T07:20:09.247Z,0.74
2022-12-14T07:22:36.563Z,0.54
2022-12-14T07:25:04.440Z,0.44
2022-12-14T07:27:32.554Z,0.53
2022-12-14T07:30:00.516Z,0.52
2022-12-14T07:32:27.923Z,0.46
2022-12-14T07:34:55.262Z,0.48
2022-12-14T07:37:23.681Z,0.44
2022-12-14T07:39:52.023Z,0.45
2022-12-14T07:42:19.075Z,0.45
2022-12-14T07:44:46.272Z,0.49
2022-12-14T07:47:16.502Z,0.46
2022-12-14T07:49:45.840Z,0.38
2022-12-14T07:52:14.838Z,0.43
2022-12-14T07:54:43.021Z,0.54
2022-12-14T07:57:10.136Z,0.46
2022-12-14T07:59:37.111Z,0.38
2022-12-14T08:02:04.298Z,0.37
2022-12-14T08:04:31.195Z,0.37
2022-12-14T08:06:58.803Z,0.68
2022-12-14T08:09:25.746Z,0.76
2022-12-14T08:11:53.835Z,0.69
2022-12-14T08:14:22.047Z,0.60
2022-12-14T08:16:49.776Z,0.46
2022-12-14T08:19:17.878Z,0.38
2022-12-14T08:21:45.035Z,0.83
2022-12-14T08:24:12.665Z,0.74
2022-12-14T08:26:39.941Z,1.31
2022-12-14T08:29:08.102Z,1.00
2022-12-14T08:31:35.166Z,0.67
2022-12-14T08:34:02.445Z,0.93
2022-12-14T08:36:31.146Z,0.85
2022-12-14T08:38:59.097Z,1.03
2022-12-14T08:41:28.035Z,0.96
2022-12-14T08:43:57.418Z,1.24
2022-12-14T08:46:28.448Z,1.02
2022-12-14T08:48:55.845Z,0.95
2022-12-14T08:51:23.916Z,0.93
2022-12-14T08:53:51.823Z,0.82
2022-12-14T08:56:20.673Z,1.23
2022-12-14T08:58:48.032Z,1.20
2022-12-14T09:01:16.844Z,1.36
2022-12-14T09:03:46.025Z,1.16
2022-12-14T09:06:15.366Z,1.06
2022-12-14T09:08:42.759Z,0.91
2022-12-14T09:11:12.377Z,0.72
2022-12-14T09:13:40.689Z,0.66
2022-12-14T09:16:10.642Z,3.50
2022-12-14T09:18:37.828Z,3.19
2022-12-14T09:21:06.499Z,3.44
2022-12-14T09:23:34.628Z,2.97
2022-12-14T09:26:03.147Z,2.67
2022-12-14T09:28:31.435Z,2.80
2022-12-14T09:30:59.837Z,2.12
2022-12-14T09:33:27.551Z,1.36
2022-12-14T09:35:59.923Z,2.12
2022-12-14T09:38:34.660Z,1.82
2022-12-14T09:41:07.501Z,1.61
2022-12-14T09:43:40.657Z,1.50
2022-12-14T09:46:27.205Z,1.31
2022-12-14T09:48:56.213Z,1.17
2022-12-14T09:51:29.702Z,1.10
2022-12-14T09:54:06.553Z,1.51
2022-12-14T09:56:33.907Z,1.75
2022-12-14T09:59:02.904Z,1.88
2022-12-14T10:02:13.748Z,2.87
2022-12-14T10:04:49.450Z,3.34
2022-12-14T10:07:22.313Z,3.51
2022-12-14T10:10:01.241Z,2.82
2022-12-14T10:12:45.363Z,2.52
2022-12-14T10:15:23.640Z,2.62
2022-12-14T10:18:49.439Z,1.99
2022-12-14T10:21:14.233Z,1.67
2022-12-14T10:23:45.540Z,1.85
2022-12-14T10:26:18.711Z,1.76
2022-12-14T10:28:52.202Z,1.50
2022-12-14T10:31:28.998Z,1.31
2022-12-14T10:34:00.197Z,1.46
2022-12-14T10:36:37.740Z,2.06
2022-12-14T10:39:20.354Z,2.33
2022-12-14T10:41:58.626Z,2.07
2022-12-14T10:44:38.470Z,1.79
2022-12-14T10:47:17.718Z,1.70
2022-12-14T10:49:55.551Z,1.57
2022-12-14T10:52:27.777Z,1.68
2022-12-14T10:54:58.091Z,1.45
2022-12-14T10:57:27.892Z,1.30
2022-12-14T11:00:08.539Z,1.19
2022-12-14T11:02:41.366Z,1.23
2022-12-14T11:05:22.094Z,1.40
2022-12-14T11:07:49.388Z,1.65
2022-12-14T11:10:19.806Z,1.35
2022-12-14T11:13:02.778Z,1.07
2022-12-14T11:15:34.187Z,0.90
2022-12-14T11:18:06.457Z,0.72
2022-12-14T11:20:33.984Z,0.66
2022-12-14T11:23:08.967Z,22.85
2022-12-14T11:25:39.502Z,17.26
2022-12-14T11:28:23.960Z,10.51
2022-12-14T11:33:20.925Z,6.04
2022-12-14T11:35:50.617Z,3.82
2022-12-14T11:38:17.468Z,2.31
2022-12-14T11:40:45.010Z,1.61
2022-12-14T11:43:27.650Z,1.56
2022-12-14T11:45:57.003Z,1.59
2022-12-14T11:48:26.281Z,2.17
2022-12-14T11:50:54.347Z,2.35
2022-12-14T11:53:23.030Z,2.02
2022-12-14T11:55:54.733Z,2.24
2022-12-14T11:58:29.799Z,2.36
2022-12-14T12:00:59.782Z,5.21
2022-12-14T12:03:31.710Z,3.91
2022-12-14T12:06:05.239Z,3.03
2022-12-14T12:08:35.217Z,2.26
2022-12-14T12:11:04.762Z,1.80
2022-12-14T12:13:38.455Z,1.61
2022-12-14T12:16:13.600Z,1.28
2022-12-14T12:18:46.687Z,1.23
2022-12-14T12:21:19.909Z,1.46
2022-12-14T12:23:53.100Z,1.36
2022-12-14T12:26:24.852Z,1.53
2022-12-14T12:28:59.274Z,1.59
2022-12-14T12:31:31.433Z,1.24
2022-12-14T12:34:02.547Z,0.98
2022-12-14T12:36:34.145Z,0.98
2022-12-14T12:39:12.468Z,1.02
2022-12-14T12:41:50.522Z,1.02
2022-12-14T12:44:37.054Z,1.01
2022-12-14T12:47:42.950Z,0.95
2022-12-14T12:50:03.096Z,1.51
2022-12-14T12:52:34.072Z,1.28
2022-12-14T12:55:08.887Z,1.44
2022-12-14T12:57:40.683Z,1.40
2022-12-14T13:00:17.289Z,1.15
2022-12-14T13:02:50.446Z,0.89
2022-12-14T13:08:18.460Z,0.80
2022-12-14T13:11:17.211Z,0.76
2022-12-14T13:13:36.789Z,0.96
2022-12-14T13:16:14.272Z,1.05
2022-12-14T13:21:37.130Z,0.93
2022-12-14T13:24:06.542Z,1.16
2022-12-14T13:26:57.985Z,1.26
2022-12-14T13:29:38.621Z,1.18
2022-12-14T13:32:18.326Z,1.05
2022-12-14T13:34:57.157Z,1.01
2022-12-14T13:37:49.128Z,1.16
2022-12-14T13:40:43.215Z,1.51
2022-12-14T13:43:31.905Z,1.19
2022-12-14T13:46:05.802Z,1.37
2022-12-14T13:48:39.794Z,1.62
2022-12-14T13:51:16.928Z,1.88
2022-12-14T13:53:48.376Z,1.78
2022-12-14T13:56:22.908Z,1.84
2022-12-14T13:58:54.601Z,1.55
2022-12-14T14:01:53.708Z,1.39
2022-12-14T14:04:23.856Z,1.43
2022-12-14T14:06:51.437Z,1.52
2022-12-14T14:09:58.245Z,1.34
2022-12-14T14:12:46.389Z,1.63
2022-12-14T14:15:36.838Z,6.74
2022-12-14T14:18:14.021Z,15.07
2022-12-14T14:20:44.326Z,19.63
2022-12-14T14:23:36.067Z,14.46
2022-12-14T14:26:30.735Z,8.86
2022-12-14T14:29:23.984Z,6.92
2022-12-14T14:31:56.955Z,6.00
2022-12-14T14:34:38.514Z,4.66
2022-12-14T14:37:31.450Z,3.97
2022-12-14T14:40:33.221Z,4.12
2022-12-14T14:43:26.257Z,4.45
2022-12-14T14:45:56.349Z,4.65
2022-12-14T14:48:31.892Z,3.43
2022-12-14T14:51:16.352Z,3.12
2022-12-14T14:53:45.301Z,2.49
2022-12-14T14:56:36.303Z,2.07
2022-12-14T14:59:41.946Z,1.80
2022-12-14T15:02:30.964Z,1.42
2022-12-14T15:05:17.470Z,1.15
2022-12-14T15:07:46.872Z,1.42
2022-12-14T15:10:24.397Z,1.63
2022-12-14T15:12:53.518Z,1.23
2022-12-14T15:15:26.893Z,1.24
2022-12-14T15:17:54.052Z,1.13
2022-12-14T15:20:23.406Z,1.03
2022-12-14T15:22:52.024Z,0.84
2022-12-14T15:25:25.193Z,0.88
2022-12-14T15:27:53.046Z,0.70
2022-12-14T15:30:21.940Z,0.63
2022-12-14T15:32:53.493Z,0.70
2022-12-14T15:35:25.347Z,0.71
2022-12-14T15:37:59.690Z,0.87
2022-12-14T15:40:30.750Z,0.75
2022-12-14T15:42:59.910Z,0.63
2022-12-14T15:45:30.717Z,0.68
2022-12-14T15:48:13.205Z,0.60
2022-12-14T15:50:42.959Z,0.53
2022-12-14T15:53:14.884Z,0.52
2022-12-14T15:55:44.111Z,0.47
2022-12-14T15:58:17.886Z,0.34
2022-12-14T16:00:47.854Z,0.33
2022-12-14T16:03:23.556Z,0.48
2022-12-14T16:05:52.976Z,0.65
2022-12-14T16:08:21.442Z,0.65
2022-12-14T16:10:53.351Z,0.58
2022-12-14T16:13:25.381Z,0.50
2022-12-14T16:15:53.533Z,0.41
2022-12-14T16:18:20.824Z,0.86
2022-12-14T16:20:56.804Z,0.64
2022-12-14T16:23:28.063Z,0.39
2022-12-14T16:26:21.570Z,0.25
2022-12-14T16:28:48.610Z,0.20
2022-12-14T16:31:19.741Z,0.15
2022-12-14T16:34:04.335Z,0.17
2022-12-14T16:36:34.252Z,0.29
2022-12-14T16:39:03.872Z,0.20
2022-12-14T16:41:37.048Z,0.20
2022-12-14T16:44:07.449Z,0.22
2022-12-14T16:46:34.367Z,0.21
2022-12-14T16:49:29.230Z,0.16
2022-12-14T16:52:08.560Z,0.13
2022-12-14T16:54:37.532Z,0.16
2022-12-14T16:57:16.525Z,0.14
2022-12-14T16:59:46.331Z,0.12
2022-12-14T17:02:30.133Z,0.06
2022-12-14T17:04:58.395Z,0.03
2022-12-14T17:07:28.112Z,0.02
2022-12-14T17:09:55.248Z,0.01
2022-12-14T17:12:25.532Z,0.01
2022-12-14T17:14:52.429Z,0.05
2022-12-14T17:17:26.500Z,0.03
2022-12-14T17:19:54.579Z,0.01
2022-12-14T17:22:26.484Z,0.01
2022-12-14T17:24:53.656Z,0.04
2022-12-14T17:27:22.966Z,0.02
2022-12-14T17:29:51.109Z,0.01
2022-12-14T17:32:22.265Z,0.01
2022-12-14T17:34:49.314Z,0.00
2022-12-14T17:37:18.348Z,0.05
2022-12-14T17:39:46.297Z,0.12
2022-12-14T17:42:15.181Z,0.06
2022-12-14T17:44:44.046Z,0.08
2022-12-14T17:47:13.926Z,0.18
2022-12-14T17:49:41.049Z,0.21
2022-12-14T17:52:16.800Z,0.16
2022-12-14T17:54:43.624Z,0.13
2022-12-14T17:57:15.518Z,0.07
2022-12-14T17:59:47.298Z,0.04
2022-12-14T18:02:28.052Z,0.16
2022-12-14T18:04:55.040Z,0.13
2022-12-14T18:07:21.963Z,0.07
2022-12-14T18:09:48.733Z,0.09
2022-12-14T18:12:24.305Z,0.09
2022-12-14T18:14:54.139Z,0.06
2022-12-14T18:17:21.172Z,0.03
2022-12-14T18:19:49.856Z,0.02
2022-12-14T18:22:16.735Z,0.01
2022-12-14T18:24:43.932Z,0.00
2022-12-14T18:27:14.266Z,0.05
2022-12-14T18:29:41.236Z,0.07
2022-12-14T18:32:12.613Z,0.09
2022-12-14T18:34:39.496Z,0.09
2022-12-14T18:37:07.923Z,0.10
2022-12-14T18:39:35.416Z,0.10
2022-12-14T18:42:02.649Z,0.31
2022-12-14T18:44:29.499Z,0.26
2022-12-14T18:46:57.921Z,0.18
2022-12-14T18:49:32.609Z,0.22
2022-12-14T18:51:59.403Z,0.21
2022-12-14T18:54:29.363Z,0.16
2022-12-14T18:56:56.478Z,0.13
2022-12-14T18:59:23.330Z,0.12
2022-12-14T19:01:50.706Z,0.26
2022-12-14T19:04:17.606Z,0.14
2022-12-14T19:06:45.480Z,0.07
2022-12-14T19:09:13.159Z,0.04
2022-12-14T19:11:42.136Z,0.07
2022-12-14T19:14:09.145Z,0.04
2022-12-14T19:16:36.471Z,0.07
2022-12-14T19:19:03.431Z,0.40
2022-12-14T19:21:36.855Z,1.28
2022-12-14T19:24:03.916Z,0.81
2022-12-14T19:26:31.273Z,1.58
2022-12-14T19:28:59.598Z,0.89
2022-12-14T19:31:26.696Z,0.61
2022-12-14T19:33:53.872Z,0.38
2022-12-14T19:36:20.781Z,0.49
2022-12-14T19:38:49.332Z,0.31
2022-12-14T19:41:17.897Z,0.16
2022-12-14T19:43:46.250Z,0.09
2022-12-14T19:46:16.454Z,0.19
2022-12-14T19:48:44.527Z,0.16
2022-12-14T19:51:13.142Z,0.13
2022-12-14T19:53:41.577Z,0.21
2022-12-14T19:56:08.733Z,0.16
2022-12-14T19:58:35.814Z,0.13
2022-12-14T20:01:07.621Z,0.12
2022-12-14T20:03:36.777Z,0.15
2022-12-14T20:06:05.122Z,0.51
2022-12-14T20:08:33.365Z,0.94
2022-12-14T20:11:05.665Z,0.66
2022-12-14T20:13:32.855Z,0.44
2022-12-14T20:16:00.297Z,0.33
2022-12-14T20:18:29.774Z,0.18
2022-12-14T20:21:03.062Z,0.23
2022-12-14T20:23:31.249Z,1.68
2022-12-14T20:26:00.482Z,0.99
2022-12-14T20:28:27.484Z,0.57
2022-12-14T20:30:54.625Z,0.33
2022-12-14T20:33:26.486Z,0.91
2022-12-14T20:35:56.766Z,0.56
2022-12-14T20:38:25.278Z,0.34
2022-12-14T20:40:53.499Z,0.18
2022-12-14T20:43:23.451Z,0.14
2022-12-14T20:45:50.218Z,0.08
2022-12-14T20:48:20.902Z,0.04
2022-12-14T20:50:49.504Z,0.02
2022-12-14T20:53:19.385Z,0.01
2022-12-14T20:55:48.017Z,0.01
2022-12-14T20:58:15.010Z,0.14
2022-12-14T21:00:41.784Z,0.12
2022-12-14T21:03:09.902Z,0.07
2022-12-14T21:05:39.870Z,0.13
2022-12-14T21:08:06.877Z,0.16
2022-12-14T21:10:34.065Z,0.13
2022-12-14T21:13:07.415Z,0.12
2022-12-14T21:15:35.216Z,0.11
2022-12-14T21:18:02.105Z,0.10
2022-12-14T21:20:29.501Z,0.10
2022-12-14T21:22:56.310Z,0.10
2022-12-14T21:25:24.639Z,0.10
2022-12-14T21:27:51.679Z,0.10
2022-12-14T21:30:20.249Z,0.10
2022-12-14T21:32:47.137Z,0.15
2022-12-14T21:35:16.476Z,0.65
2022-12-14T21:37:44.715Z,0.34
2022-12-14T21:40:12.238Z,0.18
2022-12-14T21:42:39.117Z,0.14
2022-12-14T21:45:06.839Z,0.17
2022-12-14T21:47:34.980Z,0.23
2022-12-14T21:50:04.469Z,0.17
2022-12-14T21:52:31.415Z,0.21
2022-12-14T21:55:00.757Z,0.18
2022-12-14T21:57:27.547Z,0.19
2022-12-14T21:59:54.456Z,0.45
2022-12-14T22:02:24.580Z,0.49
2022-12-14T22:04:52.922Z,0.38
2022-12-14T22:07:20.811Z,0.25
2022-12-14T22:09:50.062Z,0.13
2022-12-14T22:12:18.008Z,0.08
2022-12-14T22:14:44.901Z,0.09
2022-12-14T22:17:13.318Z,0.16
2022-12-14T22:19:40.318Z,0.13
2022-12-14T22:22:13.117Z,0.12
2022-12-14T22:24:39.970Z,0.06
2022-12-14T22:27:06.914Z,0.03
2022-12-14T22:29:34.889Z,0.06
2022-12-14T22:32:01.839Z,0.22
2022-12-14T22:34:28.736Z,0.21
2022-12-14T22:36:55.837Z,0.16
2022-12-14T22:39:24.205Z,0.13
2022-12-14T22:41:50.924Z,0.20
2022-12-14T22:44:17.900Z,0.20
2022-12-14T22:46:45.018Z,0.25
2022-12-14T22:49:16.152Z,0.43
2022-12-14T22:51:43.678Z,0.23
2022-12-14T22:54:21.902Z,0.12
2022-12-14T22:56:54.461Z,0.06
2022-12-14T22:59:25.664Z,0.03
2022-12-14T23:01:52.987Z,0.02
2022-12-14T23:04:22.110Z,0.01
2022-12-14T23:06:49.139Z,0.01
2022-12-14T23:09:16.186Z,0.00
2022-12-14T23:11:43.092Z,0.00
2022-12-14T23:14:11.444Z,0.00
2022-12-14T23:16:38.310Z,0.00
2022-12-14T23:19:07.305Z,0.15
2022-12-14T23:21:34.427Z,0.12
2022-12-14T23:24:01.581Z,0.11
2022-12-14T23:26:28.887Z,0.11
2022-12-14T23:28:55.673Z,0.10
2022-12-14T23:31:25.424Z,0.15
2022-12-14T23:33:52.646Z,0.17
2022-12-14T23:36:19.412Z,0.19
2022-12-14T23:38:46.485Z,0.10
2022-12-14T23:41:14.430Z,0.05
2022-12-14T23:43:41.243Z,0.03
2022-12-14T23:46:08.374Z,0.01
2022-12-14T23:48:36.605Z,0.04
2022-12-14T23:51:03.549Z,0.02
2022-12-14T23:53:30.740Z,0.01
2022-12-14T23:55:58.056Z,0.05
2022-12-14T23:58:26.920Z,0.02
